Time;durP1;ratioP1;P1;durP2;ratioP2;P2;SDS_P1;SDS_P2;PMS_P1;PMS_P2;Temp;Humidity;BMP_temperature;BMP_pressure;BME280_temperature;BME280_humidity;BME280_pressure;Samples;Min_cycle;Max_cycle;Signal;HPM_P1;HPM_P2
2024/02/15 11:33:36;;;;;;;10.70;4.63;;;;;;;15.52;100.00;100815.50;6197125;23;20015;31
2024/02/15 11:36:09;;;;;;;10.95;4.80;;;;;;;15.56;100.00;100822.50;6135951;23;20076;-89
2024/02/15 11:38:36;;;;;;;16.00;6.38;;;;;;;15.57;100.00;100813.19;6154990;23;20006;-88
2024/02/15 11:41:06;;;;;;;15.38;5.63;;;;;;;15.57;100.00;100813.19;6165551;23;20048;-89
2024/02/15 11:43:50;;;;;;;19.30;6.50;;;;;;;15.47;100.00;100813.13;6155246;23;20021;-88
2024/02/15 11:46:19;;;;;;;13.85;5.93;;;;;;;15.37;100.00;100806.47;6155964;23;20371;-88
2024/02/15 11:48:46;;;;;;;11.98;5.22;;;;;;;15.39;100.00;100806.88;6155773;23;20009;-88
2024/02/15 11:51:25;;;;;;;14.93;5.68;;;;;;;15.45;100.00;100812.78;6154945;23;20017;-89
2024/02/15 11:54:08;;;;;;;15.60;5.32;;;;;;;15.46;100.00;100804.22;6128041;23;20020;-89
2024/02/15 11:57:09;;;;;;;13.80;5.18;;;;;;;15.41;100.00;100801.84;6129110;23;20017;-88
2024/02/15 12:00:12;;;;;;;16.00;5.85;;;;;;;15.43;100.00;100799.56;6153864;23;20012;-88
2024/02/15 12:19:21;;;;;;;18.17;6.07;;;;;;;15.28;100.00;100785.16;6128979;23;20058;-89
2024/02/15 12:21:48;;;;;;;17.38;7.05;;;;;;;15.47;100.00;100783.28;6105052;23;20029;-89
2024/02/15 12:24:14;;;;;;;15.32;5.60;;;;;;;15.46;100.00;100779.81;6128664;23;20009;-89
2024/02/15 12:26:41;;;;;;;16.73;5.85;;;;;;;15.31;100.00;100772.75;6165070;23;20001;-89
2024/02/15 12:29:08;;;;;;;17.25;5.72;;;;;;;15.28;100.00;100768.09;6155434;23;20009;-88
2024/02/15 12:31:38;;;;;;;12.95;4.97;;;;;;;15.26;100.00;100770.41;6163425;23;20047;-88
2024/02/15 12:34:07;;;;;;;16.38;6.25;;;;;;;15.34;100.00;100769.28;6163707;23;20013;-88
2024/02/15 12:36:36;;;;;;;16.75;6.20;;;;;;;15.31;100.00;100767.34;6153519;23;20354;-88
2024/02/15 12:39:14;;;;;;;11.90;5.25;;;;;;;15.19;100.00;100765.72;6163615;23;20018;-88
2024/02/15 12:41:41;;;;;;;16.73;6.07;;;;;;;15.27;100.00;100766.53;6128977;23;20021;-88
2024/02/15 12:44:07;;;;;;;16.98;5.70;;;;;;;15.22;100.00;100764.19;6152741;23;20037;-88
2024/02/15 12:46:38;;;;;;;14.52;4.93;;;;;;;15.18;100.00;100764.19;6152555;23;20024;-88
2024/02/15 12:49:17;;;;;;;17.50;6.23;;;;;;;15.23;100.00;100765.75;6153789;23;20045;-88
2024/02/15 12:51:53;;;;;;;11.23;4.75;;;;;;;15.16;100.00;100768.44;6151845;23;20257;-89
2024/02/15 12:54:21;;;;;;;13.88;5.95;;;;;;;15.25;100.00;100766.16;6154739;23;20017;-89
2024/02/15 12:56:48;;;;;;;18.80;6.05;;;;;;;15.18;100.00;100760.69;6150077;23;20052;-88
2024/02/15 12:59:14;;;;;;;13.27;5.72;;;;;;;15.14;100.00;100759.88;6152927;23;20481;-89
2024/02/15 13:01:40;;;;;;;15.07;5.95;;;;;;;15.22;100.00;100761.47;6154219;23;20004;-88
2024/02/15 13:04:20;;;;;;;18.40;5.47;;;;;;;15.30;100.00;100760.34;6159686;23;20009;-88
2024/02/15 13:06:46;;;;;;;12.20;4.97;;;;;;;15.20;100.00;100764.56;6107076;23;20017;-89
2024/02/15 13:09:12;;;;;;;11.10;4.50;;;;;;;15.20;100.00;100766.50;6153910;23;20287;-89
2024/02/15 13:11:38;;;;;;;9.18;4.03;;;;;;;15.16;100.00;100755.66;6153365;23;20388;-89
2024/02/15 13:14:04;;;;;;;10.55;4.55;;;;;;;15.18;100.00;100753.31;6129012;23;20029;-89
2024/02/15 13:16:31;;;;;;;9.48;4.32;;;;;;;15.36;100.00;100754.16;6158816;23;20044;-88
2024/02/15 13:18:58;;;;;;;9.18;4.75;;;;;;;15.32;100.00;100752.59;6158517;23;20009;-91
2024/02/15 13:21:30;;;;;;;10.52;4.55;;;;;;;15.31;100.00;100745.63;6145400;23;20111;-89
2024/02/15 13:23:55;;;;;;;;;;;;;;;15.28;100.00;100749.09;6150837;23;20017;-90
2024/02/15 13:26:23;;;;;;;8.38;4.00;;;;;;;15.30;100.00;100744.06;6151826;23;19934;-88
2024/02/15 13:28:49;;;;;;;10.48;4.65;;;;;;;15.26;100.00;100743.28;6126618;23;20024;-89
2024/02/15 13:31:15;;;;;;;7.63;3.38;;;;;;;15.34;100.00;100750.28;6151677;23;20005;-89
2024/02/15 13:33:41;;;;;;;9.63;3.85;;;;;;;15.28;100.00;100740.94;6152238;23;20069;-89
2024/02/15 13:36:10;;;;;;;6.85;3.38;;;;;;;15.33;100.00;100748.69;6152304;23;20507;-89
2024/02/15 13:38:36;;;;;;;8.70;3.20;;;;;;;15.28;100.00;100741.72;6154256;23;20020;-89
2024/02/15 13:41:03;;;;;;;5.93;2.90;;;;;;;15.22;100.00;100742.47;6154630;23;20051;-89
2024/02/15 13:43:29;;;;;;;5.13;2.47;;;;;;;15.21;100.00;100740.94;6152372;23;20029;-89
2024/02/15 13:45:54;;;;;;;7.05;2.60;;;;;;;15.21;100.00;100743.66;6127060;23;20036;-90
2024/02/15 13:48:20;;;;;;;6.45;2.83;;;;;;;15.16;100.00;100741.28;6153971;23;20013;-89
2024/02/15 13:50:45;;;;;;;5.22;2.45;;;;;;;15.07;100.00;100727.31;6152521;23;20013;-89
2024/02/15 13:53:13;;;;;;;4.60;2.65;;;;;;;15.02;100.00;100733.88;6127946;23;20112;-89
2024/02/15 13:55:39;;;;;;;6.13;3.10;;;;;;;15.03;100.00;100726.53;6152969;23;20017;-89
2024/02/15 13:58:07;;;;;;;4.53;2.35;;;;;;;15.16;100.00;100731.22;6152857;23;20096;-90
2024/02/15 14:00:33;;;;;;;5.28;2.30;;;;;;;15.01;100.00;100726.91;6164638;23;20051;-89
2024/02/15 14:03:05;;;;;;;3.83;1.88;;;;;;;15.05;100.00;100724.22;6153165;23;20104;-89
2024/02/15 14:05:32;;;;;;;4.40;2.42;;;;;;;15.02;100.00;100722.28;6102926;23;20017;-90
2024/02/15 14:08:00;;;;;;;5.78;2.30;;;;;;;14.93;100.00;100721.84;6153271;23;20005;-88
2024/02/15 14:10:29;;;;;;;5.72;2.50;;;;;;;15.00;100.00;100721.88;6166550;23;20401;-88
2024/02/15 14:12:55;;;;;;;3.47;1.95;;;;;;;15.03;100.00;100726.53;6130128;23;20022;-87
2024/02/15 14:15:21;;;;;;;4.15;2.20;;;;;;;15.08;100.00;100721.50;6129080;23;20092;-87
2024/02/15 14:17:47;;;;;;;5.55;2.60;;;;;;;15.02;100.00;100728.47;6153953;23;20017;-88
2024/02/15 14:20:13;;;;;;;4.28;2.47;;;;;;;14.98;100.00;100722.25;6154750;23;20016;-88
2024/02/15 14:22:40;;;;;;;7.25;2.53;;;;;;;15.09;100.00;100725.78;6152166;23;20006;-88
2024/02/15 14:25:07;;;;;;;3.00;2.10;;;;;;;15.14;100.00;100719.97;6154168;23;20017;-88
2024/02/15 14:27:32;;;;;;;3.28;2.30;;;;;;;15.02;100.00;100722.28;6116802;23;20013;-88
2024/02/15 14:33:00;;;;;;;3.83;2.17;;;;;;;15.13;100.00;100717.66;6136697;23;20018;-90
2024/02/15 14:35:35;;;;;;;4.40;2.40;;;;;;;15.13;100.00;100720.38;6129485;23;20019;-89
2024/02/15 14:38:06;;;;;;;6.90;2.40;;;;;;;15.13;100.00;100723.09;6140067;23;20112;-88
2024/02/15 14:40:36;;;;;;;3.53;2.67;;;;;;;15.03;100.00;100721.09;6142557;23;20463;-91
2024/02/15 14:43:21;;;;;;;5.95;2.65;;;;;;;15.12;100.00;100716.09;6138789;23;20033;-91
2024/02/15 14:45:47;;;;;;;3.97;2.47;;;;;;;15.06;100.00;100715.69;6135963;23;20799;-94
2024/02/15 14:48:18;;;;;;;4.15;2.20;;;;;;;15.18;100.00;100715.34;6145422;23;20013;-93
2024/02/15 14:50:56;;;;;;;6.10;2.65;;;;;;;15.11;100.00;100711.84;6122365;23;20005;-93
2024/02/15 14:53:31;;;;;;;;;;;;;;;15.16;100.00;100714.94;6148164;23;20021;-93
2024/02/15 14:55:57;;;;;;;;;;;;;;;15.13;100.00;100720.38;6120922;23;20269;-90
2024/02/15 14:58:28;;;;;;;4.50;2.38;;;;;;;15.12;100.00;100716.09;6128398;23;19908;-90
2024/02/15 15:00:54;;;;;;;3.40;2.10;;;;;;;15.01;100.00;100710.66;6119447;23;20001;-90
2024/02/15 15:03:23;;;;;;;4.38;2.40;;;;;;;15.15;100.00;100718.84;6148530;23;20063;-91
2024/02/15 19:57:08;;;;;;;6.50;3.03;;;;;;;14.81;100.00;100693.13;6208812;22;20031;-90
2024/02/15 19:59:45;;;;;;;8.63;3.22;;;;;;;14.88;100.00;100684.25;6206319;23;20075;-89
2024/02/15 20:06:15;;;;;;;4.63;2.70;;;;;;;14.82;100.00;100686.56;6209377;23;20073;-89
2024/02/15 20:09:08;;;;;;;4.15;2.40;;;;;;;14.83;100.00;100677.25;6210305;23;20004;-88
2024/02/15 20:11:58;;;;;;;5.45;2.67;;;;;;;14.75;100.00;100683.81;6190661;23;20008;-89
2024/02/15 20:14:49;;;;;;;6.53;2.58;;;;;;;14.94;100.00;100671.88;6184088;23;20107;-89
2024/02/15 20:21:56;;;;;;;14.20;4.60;;;;;;;14.74;100.00;100660.59;6076484;23;20093;-89
2024/02/15 20:25:14;;;;;;;4.55;2.60;;;;;;;14.75;100.00;100666.78;6098497;23;20025;-89
2024/02/15 20:28:48;;;;;;;10.10;3.28;;;;;;;14.62;100.00;100670.97;6061226;23;20014;-90
2024/02/15 20:45:40;;;;;;;3.17;2.28;;;;;;;14.84;100.00;100681.53;6112698;23;20014;-89
2024/02/15 20:48:53;;;;;;;4.70;2.22;;;;;;;14.79;100.00;100681.13;6105421;23;20028;-89
2024/02/15 20:51:57;;;;;;;9.18;2.80;;;;;;;14.74;100.00;100687.69;6127600;23;20006;-89
2024/02/15 20:54:58;;;;;;;3.60;2.50;;;;;;;14.73;100.00;100685.38;6093858;23;20319;-89
